sensor_id;sensor_type;location;lat;lon;timestamp;P1;durP1;ratioP1;P2;durP2;ratioP2
65035;SDS011;51603;49.300;8.880;2023-02-11T00:01:47;47.90;;;33.33;;
65035;SDS011;51603;49.300;8.880;2023-02-11T00:04:13;48.23;;;32.20;;
65035;SDS011;51603;49.300;8.880;2023-02-11T00:06:38;46.33;;;32.33;;
65035;SDS011;51603;49.300;8.880;2023-02-11T00:09:04;47.27;;;32.00;;
65035;SDS011;51603;49.300;8.880;2023-02-11T00:11:30;57.53;;;35.50;;
65035;SDS011;51603;49.300;8.880;2023-02-11T00:13:56;51.43;;;32.73;;
65035;SDS011;51603;49.300;8.880;2023-02-11T00:16:27;46.40;;;33.42;;
65035;SDS011;51603;49.300;8.880;2023-02-11T00:18:53;53.00;;;34.73;;
65035;SDS011;51603;49.300;8.880;2023-02-11T00:21:22;50.10;;;36.00;;
65035;SDS011;51603;49.300;8.880;2023-02-11T00:23:49;50.63;;;35.05;;
65035;SDS011;51603;49.300;8.880;2023-02-11T00:26:16;49.15;;;34.33;;
65035;SDS011;51603;49.300;8.880;2023-02-11T00:28:42;48.20;;;34.70;;
65035;SDS011;51603;49.300;8.880;2023-02-11T00:31:08;48.75;;;35.42;;
65035;SDS011;51603;49.300;8.880;2023-02-11T00:33:34;49.63;;;33.83;;
65035;SDS011;51603;49.300;8.880;2023-02-11T00:36:07;48.90;;;33.60;;
65035;SDS011;51603;49.300;8.880;2023-02-11T00:38:35;48.85;;;36.25;;
65035;SDS011;51603;49.300;8.880;2023-02-11T00:41:00;51.90;;;35.30;;
65035;SDS011;51603;49.300;8.880;2023-02-11T00:43:26;58.70;;;36.87;;
65035;SDS011;51603;49.300;8.880;2023-02-11T00:45:52;122.10;;;76.00;;
65035;SDS011;51603;49.300;8.880;2023-02-11T00:48:17;100.47;;;61.90;;
65035;SDS011;51603;49.300;8.880;2023-02-11T00:50:43;58.47;;;41.53;;
65035;SDS011;51603;49.300;8.880;2023-02-11T00:53:08;65.63;;;42.10;;
65035;SDS011;51603;49.300;8.880;2023-02-11T00:55:34;70.10;;;43.17;;
65035;SDS011;51603;49.300;8.880;2023-02-11T00:58:00;64.37;;;41.20;;
65035;SDS011;51603;49.300;8.880;2023-02-11T01:00:26;57.93;;;39.17;;
65035;SDS011;51603;49.300;8.880;2023-02-11T01:02:52;53.93;;;37.27;;
65035;SDS011;51603;49.300;8.880;2023-02-11T01:05:18;52.77;;;35.73;;
65035;SDS011;51603;49.300;8.880;2023-02-11T01:07:44;52.85;;;35.63;;
65035;SDS011;51603;49.300;8.880;2023-02-11T01:10:10;54.50;;;38.53;;
65035;SDS011;51603;49.300;8.880;2023-02-11T01:12:35;53.47;;;37.50;;
65035;SDS011;51603;49.300;8.880;2023-02-11T01:15:01;54.33;;;36.73;;
65035;SDS011;51603;49.300;8.880;2023-02-11T01:17:27;54.65;;;36.65;;
65035;SDS011;51603;49.300;8.880;2023-02-11T01:19:53;51.73;;;37.47;;
65035;SDS011;51603;49.300;8.880;2023-02-11T01:22:18;51.93;;;37.13;;
65035;SDS011;51603;49.300;8.880;2023-02-11T01:24:44;51.60;;;36.03;;
65035;SDS011;51603;49.300;8.880;2023-02-11T01:27:10;50.70;;;35.87;;
65035;SDS011;51603;49.300;8.880;2023-02-11T01:29:35;54.83;;;37.00;;
65035;SDS011;51603;49.300;8.880;2023-02-11T01:32:01;55.07;;;36.73;;
65035;SDS011;51603;49.300;8.880;2023-02-11T01:34:26;47.20;;;36.57;;
65035;SDS011;51603;49.300;8.880;2023-02-11T01:36:56;50.03;;;35.60;;
65035;SDS011;51603;49.300;8.880;2023-02-11T01:39:22;50.83;;;36.88;;
65035;SDS011;51603;49.300;8.880;2023-02-11T01:41:48;47.00;;;34.53;;
65035;SDS011;51603;49.300;8.880;2023-02-11T01:46:53;50.95;;;36.08;;
65035;SDS011;51603;49.300;8.880;2023-02-11T01:49:29;52.67;;;36.72;;
65035;SDS011;51603;49.300;8.880;2023-02-11T01:54:46;59.20;;;38.80;;
65035;SDS011;51603;49.300;8.880;2023-02-11T01:57:36;55.10;;;37.70;;
65035;SDS011;51603;49.300;8.880;2023-02-11T02:02:43;57.88;;;39.22;;
65035;SDS011;51603;49.300;8.880;2023-02-11T02:10:28;52.33;;;38.47;;
65035;SDS011;51603;49.300;8.880;2023-02-11T02:12:55;50.60;;;37.08;;
65035;SDS011;51603;49.300;8.880;2023-02-11T02:15:28;51.75;;;37.25;;
65035;SDS011;51603;49.300;8.880;2023-02-11T02:38:00;50.90;;;32.67;;
65035;SDS011;51603;49.300;8.880;2023-02-11T02:41:20;54.20;;;35.08;;
65035;SDS011;51603;49.300;8.880;2023-02-11T02:43:39;52.85;;;36.13;;
65035;SDS011;51603;49.300;8.880;2023-02-11T02:46:30;56.85;;;37.67;;
65035;SDS011;51603;49.300;8.880;2023-02-11T02:48:56;50.15;;;33.42;;
65035;SDS011;51603;49.300;8.880;2023-02-11T03:04:29;35.08;;;24.52;;
65035;SDS011;51603;49.300;8.880;2023-02-11T03:07:02;39.50;;;26.25;;
65035;SDS011;51603;49.300;8.880;2023-02-11T03:09:38;35.85;;;25.20;;
65035;SDS011;51603;49.300;8.880;2023-02-11T03:12:08;35.15;;;25.80;;
65035;SDS011;51603;49.300;8.880;2023-02-11T03:14:36;39.00;;;25.38;;
65035;SDS011;51603;49.300;8.880;2023-02-11T03:17:04;38.80;;;26.13;;
65035;SDS011;51603;49.300;8.880;2023-02-11T03:19:39;32.67;;;25.30;;
65035;SDS011;51603;49.300;8.880;2023-02-11T03:22:18;40.80;;;27.60;;
65035;SDS011;51603;49.300;8.880;2023-02-11T03:24:49;43.55;;;30.27;;
65035;SDS011;51603;49.300;8.880;2023-02-11T03:27:20;42.88;;;32.03;;
65035;SDS011;51603;49.300;8.880;2023-02-11T03:29:58;49.13;;;35.13;;
65035;SDS011;51603;49.300;8.880;2023-02-11T03:35:42;49.05;;;34.38;;
65035;SDS011;51603;49.300;8.880;2023-02-11T03:38:24;50.15;;;34.78;;
65035;SDS011;51603;49.300;8.880;2023-02-11T03:40:57;50.78;;;33.90;;
65035;SDS011;51603;49.300;8.880;2023-02-11T03:44:06;50.47;;;36.20;;
65035;SDS011;51603;49.300;8.880;2023-02-11T03:46:15;49.63;;;37.00;;
65035;SDS011;51603;49.300;8.880;2023-02-11T03:48:48;50.58;;;35.75;;
65035;SDS011;51603;49.300;8.880;2023-02-11T03:51:17;46.97;;;33.72;;
65035;SDS011;51603;49.300;8.880;2023-02-11T03:53:46;49.05;;;33.13;;
65035;SDS011;51603;49.300;8.880;2023-02-11T03:56:16;44.20;;;31.33;;
65035;SDS011;51603;49.300;8.880;2023-02-11T03:58:44;48.63;;;30.40;;
65035;SDS011;51603;49.300;8.880;2023-02-11T04:01:10;44.10;;;28.37;;
65035;SDS011;51603;49.300;8.880;2023-02-11T04:03:36;42.10;;;29.23;;
65035;SDS011;51603;49.300;8.880;2023-02-11T04:06:02;40.00;;;28.50;;
65035;SDS011;51603;49.300;8.880;2023-02-11T04:08:27;45.60;;;31.17;;
65035;SDS011;51603;49.300;8.880;2023-02-11T04:10:53;39.00;;;27.70;;
65035;SDS011;51603;49.300;8.880;2023-02-11T04:13:19;42.47;;;27.27;;
65035;SDS011;51603;49.300;8.880;2023-02-11T04:15:44;42.13;;;28.83;;
65035;SDS011;51603;49.300;8.880;2023-02-11T04:18:10;41.87;;;28.60;;
65035;SDS011;51603;49.300;8.880;2023-02-11T04:20:36;36.33;;;27.47;;
65035;SDS011;51603;49.300;8.880;2023-02-11T04:23:01;40.40;;;29.07;;
65035;SDS011;51603;49.300;8.880;2023-02-11T04:25:27;38.57;;;28.43;;
65035;SDS011;51603;49.300;8.880;2023-02-11T04:27:53;43.63;;;30.27;;
65035;SDS011;51603;49.300;8.880;2023-02-11T04:30:18;41.27;;;27.20;;
65035;SDS011;51603;49.300;8.880;2023-02-11T04:32:44;43.40;;;29.07;;
65035;SDS011;51603;49.300;8.880;2023-02-11T04:35:09;39.07;;;29.37;;
65035;SDS011;51603;49.300;8.880;2023-02-11T04:37:35;48.53;;;34.00;;
65035;SDS011;51603;49.300;8.880;2023-02-11T04:40:00;38.40;;;28.57;;
65035;SDS011;51603;49.300;8.880;2023-02-11T04:42:26;40.90;;;29.90;;
65035;SDS011;51603;49.300;8.880;2023-02-11T04:44:52;39.03;;;27.60;;
65035;SDS011;51603;49.300;8.880;2023-02-11T04:47:17;38.20;;;27.00;;
65035;SDS011;51603;49.300;8.880;2023-02-11T04:49:43;37.03;;;27.03;;
65035;SDS011;51603;49.300;8.880;2023-02-11T04:52:09;30.83;;;23.23;;
65035;SDS011;51603;49.300;8.880;2023-02-11T04:54:34;33.73;;;23.43;;
65035;SDS011;51603;49.300;8.880;2023-02-11T04:57:00;27.80;;;21.13;;
65035;SDS011;51603;49.300;8.880;2023-02-11T04:59:26;34.87;;;24.37;;
65035;SDS011;51603;49.300;8.880;2023-02-11T05:01:51;34.73;;;24.07;;
65035;SDS011;51603;49.300;8.880;2023-02-11T05:04:17;32.53;;;23.40;;
65035;SDS011;51603;49.300;8.880;2023-02-11T05:06:42;36.90;;;23.30;;
65035;SDS011;51603;49.300;8.880;2023-02-11T05:09:09;30.53;;;22.67;;
65035;SDS011;51603;49.300;8.880;2023-02-11T05:11:36;34.50;;;22.92;;
65035;SDS011;51603;49.300;8.880;2023-02-11T05:14:03;35.57;;;22.90;;
65035;SDS011;51603;49.300;8.880;2023-02-11T05:16:29;34.67;;;25.17;;
65035;SDS011;51603;49.300;8.880;2023-02-11T05:18:55;31.77;;;22.40;;
65035;SDS011;51603;49.300;8.880;2023-02-11T05:21:20;34.50;;;24.40;;
65035;SDS011;51603;49.300;8.880;2023-02-11T05:23:46;29.87;;;21.53;;
65035;SDS011;51603;49.300;8.880;2023-02-11T05:26:12;33.03;;;23.73;;
65035;SDS011;51603;49.300;8.880;2023-02-11T05:28:38;35.40;;;24.30;;
65035;SDS011;51603;49.300;8.880;2023-02-11T05:31:05;30.25;;;22.35;;
65035;SDS011;51603;49.300;8.880;2023-02-11T05:33:31;37.03;;;27.50;;
65035;SDS011;51603;49.300;8.880;2023-02-11T05:36:04;44.37;;;30.40;;
65035;SDS011;51603;49.300;8.880;2023-02-11T05:38:32;36.28;;;29.67;;
65035;SDS011;51603;49.300;8.880;2023-02-11T05:40:58;40.67;;;29.65;;
65035;SDS011;51603;49.300;8.880;2023-02-11T05:43:24;43.97;;;31.10;;
65035;SDS011;51603;49.300;8.880;2023-02-11T05:45:50;40.10;;;30.43;;
65035;SDS011;51603;49.300;8.880;2023-02-11T05:48:15;47.30;;;36.23;;
65035;SDS011;51603;49.300;8.880;2023-02-11T05:50:41;44.17;;;34.28;;
65035;SDS011;51603;49.300;8.880;2023-02-11T05:53:07;37.70;;;28.60;;
65035;SDS011;51603;49.300;8.880;2023-02-11T05:55:33;39.60;;;29.37;;
65035;SDS011;51603;49.300;8.880;2023-02-11T05:57:59;39.83;;;28.10;;
65035;SDS011;51603;49.300;8.880;2023-02-11T06:00:24;34.17;;;25.97;;
65035;SDS011;51603;49.300;8.880;2023-02-11T06:02:50;34.23;;;25.70;;
65035;SDS011;51603;49.300;8.880;2023-02-11T06:05:16;40.30;;;25.87;;
65035;SDS011;51603;49.300;8.880;2023-02-11T06:07:41;36.63;;;25.10;;
65035;SDS011;51603;49.300;8.880;2023-02-11T06:10:07;30.63;;;22.50;;
65035;SDS011;51603;49.300;8.880;2023-02-11T06:12:33;34.47;;;24.65;;
65035;SDS011;51603;49.300;8.880;2023-02-11T06:15:00;30.00;;;21.75;;
65035;SDS011;51603;49.300;8.880;2023-02-11T06:17:26;35.20;;;22.30;;
65035;SDS011;51603;49.300;8.880;2023-02-11T06:19:55;36.13;;;23.75;;
65035;SDS011;51603;49.300;8.880;2023-02-11T06:22:21;32.57;;;22.80;;
65035;SDS011;51603;49.300;8.880;2023-02-11T06:24:46;29.07;;;20.40;;
65035;SDS011;51603;49.300;8.880;2023-02-11T06:27:12;32.23;;;24.17;;
65035;SDS011;51603;49.300;8.880;2023-02-11T06:29:37;30.20;;;21.17;;
65035;SDS011;51603;49.300;8.880;2023-02-11T06:32:03;30.70;;;21.10;;
65035;SDS011;51603;49.300;8.880;2023-02-11T06:34:28;31.27;;;21.43;;
65035;SDS011;51603;49.300;8.880;2023-02-11T06:36:54;30.07;;;20.53;;
65035;SDS011;51603;49.300;8.880;2023-02-11T06:39:20;29.80;;;20.50;;
65035;SDS011;51603;49.300;8.880;2023-02-11T06:41:45;26.63;;;19.80;;
65035;SDS011;51603;49.300;8.880;2023-02-11T06:44:11;27.67;;;20.50;;
65035;SDS011;51603;49.300;8.880;2023-02-11T06:46:36;27.90;;;20.60;;
65035;SDS011;51603;49.300;8.880;2023-02-11T06:49:02;30.23;;;22.20;;
65035;SDS011;51603;49.300;8.880;2023-02-11T06:51:27;33.60;;;22.27;;
65035;SDS011;51603;49.300;8.880;2023-02-11T06:53:53;32.00;;;21.30;;
65035;SDS011;51603;49.300;8.880;2023-02-11T06:56:21;25.80;;;19.50;;
65035;SDS011;51603;49.300;8.880;2023-02-11T06:58:51;29.20;;;19.10;;
65035;SDS011;51603;49.300;8.880;2023-02-11T07:01:18;41.78;;;27.45;;
65035;SDS011;51603;49.300;8.880;2023-02-11T07:03:44;33.80;;;24.10;;
65035;SDS011;51603;49.300;8.880;2023-02-11T07:06:12;34.25;;;21.30;;
65035;SDS011;51603;49.300;8.880;2023-02-11T07:08:40;36.13;;;23.77;;
65035;SDS011;51603;49.300;8.880;2023-02-11T07:13:43;33.03;;;22.30;;
65035;SDS011;51603;49.300;8.880;2023-02-11T07:16:10;33.20;;;24.83;;
65035;SDS011;51603;49.300;8.880;2023-02-11T07:18:38;32.58;;;23.63;;
65035;SDS011;51603;49.300;8.880;2023-02-11T07:21:04;34.90;;;25.60;;
65035;SDS011;51603;49.300;8.880;2023-02-11T07:23:31;31.65;;;22.25;;
65035;SDS011;51603;49.300;8.880;2023-02-11T07:25:57;35.00;;;24.80;;
65035;SDS011;51603;49.300;8.880;2023-02-11T07:28:22;34.23;;;23.93;;
65035;SDS011;51603;49.300;8.880;2023-02-11T07:30:48;30.20;;;21.20;;
65035;SDS011;51603;49.300;8.880;2023-02-11T07:33:13;31.37;;;22.93;;
65035;SDS011;51603;49.300;8.880;2023-02-11T07:35:39;32.93;;;22.70;;
65035;SDS011;51603;49.300;8.880;2023-02-11T07:38:04;30.00;;;22.30;;
65035;SDS011;51603;49.300;8.880;2023-02-11T07:40:30;34.97;;;22.40;;
65035;SDS011;51603;49.300;8.880;2023-02-11T07:42:55;31.90;;;21.47;;
65035;SDS011;51603;49.300;8.880;2023-02-11T07:45:21;34.60;;;23.33;;
65035;SDS011;51603;49.300;8.880;2023-02-11T07:47:47;33.30;;;22.30;;
65035;SDS011;51603;49.300;8.880;2023-02-11T07:50:12;28.17;;;21.77;;
65035;SDS011;51603;49.300;8.880;2023-02-11T07:52:38;31.97;;;22.07;;
65035;SDS011;51603;49.300;8.880;2023-02-11T07:55:03;32.27;;;21.73;;
65035;SDS011;51603;49.300;8.880;2023-02-11T07:57:29;30.53;;;23.00;;
65035;SDS011;51603;49.300;8.880;2023-02-11T07:59:55;31.27;;;20.73;;
65035;SDS011;51603;49.300;8.880;2023-02-11T08:02:20;28.90;;;22.23;;
65035;SDS011;51603;49.300;8.880;2023-02-11T08:04:46;29.60;;;22.93;;
65035;SDS011;51603;49.300;8.880;2023-02-11T08:07:18;30.13;;;22.60;;
65035;SDS011;51603;49.300;8.880;2023-02-11T08:09:44;27.55;;;20.48;;
65035;SDS011;51603;49.300;8.880;2023-02-11T08:12:09;31.23;;;21.50;;
65035;SDS011;51603;49.300;8.880;2023-02-11T08:14:35;34.77;;;21.60;;
65035;SDS011;51603;49.300;8.880;2023-02-11T08:17:01;28.47;;;21.87;;
65035;SDS011;51603;49.300;8.880;2023-02-11T08:19:26;30.23;;;23.97;;
65035;SDS011;51603;49.300;8.880;2023-02-11T08:21:55;31.80;;;22.73;;
65035;SDS011;51603;49.300;8.880;2023-02-11T08:24:21;30.40;;;21.87;;
65035;SDS011;51603;49.300;8.880;2023-02-11T08:26:47;33.80;;;23.40;;
65035;SDS011;51603;49.300;8.880;2023-02-11T08:29:13;36.73;;;24.37;;
65035;SDS011;51603;49.300;8.880;2023-02-11T08:31:41;41.65;;;25.15;;
65035;SDS011;51603;49.300;8.880;2023-02-11T08:34:08;33.90;;;24.00;;
65035;SDS011;51603;49.300;8.880;2023-02-11T08:36:35;33.93;;;23.60;;
65035;SDS011;51603;49.300;8.880;2023-02-11T08:39:04;31.25;;;24.55;;
65035;SDS011;51603;49.300;8.880;2023-02-11T08:41:32;32.57;;;23.07;;
65035;SDS011;51603;49.300;8.880;2023-02-11T08:43:59;27.67;;;20.90;;
65035;SDS011;51603;49.300;8.880;2023-02-11T08:46:24;35.00;;;23.30;;
65035;SDS011;51603;49.300;8.880;2023-02-11T08:48:50;32.33;;;23.73;;
65035;SDS011;51603;49.300;8.880;2023-02-11T08:51:17;31.23;;;23.77;;
65035;SDS011;51603;49.300;8.880;2023-02-11T08:53:51;29.60;;;22.27;;
65035;SDS011;51603;49.300;8.880;2023-02-11T08:56:19;33.97;;;21.90;;
65035;SDS011;51603;49.300;8.880;2023-02-11T08:58:46;27.50;;;21.53;;
65035;SDS011;51603;49.300;8.880;2023-02-11T09:01:12;31.20;;;22.03;;
65035;SDS011;51603;49.300;8.880;2023-02-11T09:03:40;37.03;;;24.10;;
65035;SDS011;51603;49.300;8.880;2023-02-11T09:06:07;29.33;;;21.70;;
65035;SDS011;51603;49.300;8.880;2023-02-11T09:08:37;30.93;;;22.03;;
65035;SDS011;51603;49.300;8.880;2023-02-11T09:11:05;29.30;;;21.93;;
65035;SDS011;51603;49.300;8.880;2023-02-11T09:13:31;30.50;;;21.30;;
65035;SDS011;51603;49.300;8.880;2023-02-11T09:15:58;29.07;;;22.17;;
65035;SDS011;51603;49.300;8.880;2023-02-11T09:18:24;27.67;;;21.50;;
65035;SDS011;51603;49.300;8.880;2023-02-11T09:20:50;28.00;;;21.87;;
65035;SDS011;51603;49.300;8.880;2023-02-11T09:23:15;28.47;;;22.90;;
65035;SDS011;51603;49.300;8.880;2023-02-11T09:25:41;30.20;;;22.37;;
65035;SDS011;51603;49.300;8.880;2023-02-11T09:28:07;30.13;;;22.40;;
65035;SDS011;51603;49.300;8.880;2023-02-11T09:30:33;30.10;;;21.30;;
65035;SDS011;51603;49.300;8.880;2023-02-11T09:33:00;27.20;;;21.50;;
65035;SDS011;51603;49.300;8.880;2023-02-11T09:35:26;30.07;;;23.73;;
65035;SDS011;51603;49.300;8.880;2023-02-11T09:37:52;28.33;;;21.50;;
65035;SDS011;51603;49.300;8.880;2023-02-11T09:40:17;27.27;;;22.10;;
65035;SDS011;51603;49.300;8.880;2023-02-11T09:42:45;31.73;;;22.80;;
65035;SDS011;51603;49.300;8.880;2023-02-11T09:45:19;30.00;;;22.03;;
65035;SDS011;51603;49.300;8.880;2023-02-11T09:47:59;30.53;;;22.20;;
65035;SDS011;51603;49.300;8.880;2023-02-11T09:50:32;30.07;;;22.50;;
65035;SDS011;51603;49.300;8.880;2023-02-11T09:53:01;36.97;;;23.57;;
65035;SDS011;51603;49.300;8.880;2023-02-11T09:55:32;27.93;;;21.50;;
65035;SDS011;51603;49.300;8.880;2023-02-11T09:58:12;29.07;;;22.50;;
65035;SDS011;51603;49.300;8.880;2023-02-11T10:00:47;31.27;;;22.83;;
65035;SDS011;51603;49.300;8.880;2023-02-11T10:03:22;32.47;;;24.27;;
65035;SDS011;51603;49.300;8.880;2023-02-11T10:22:51;31.00;;;24.73;;
65035;SDS011;51603;49.300;8.880;2023-02-11T10:25:21;30.33;;;23.43;;
65035;SDS011;51603;49.300;8.880;2023-02-11T10:27:46;29.33;;;22.70;;
65035;SDS011;51603;49.300;8.880;2023-02-11T10:30:21;26.53;;;20.60;;
65035;SDS011;51603;49.300;8.880;2023-02-11T10:32:59;27.30;;;22.57;;
65035;SDS011;51603;49.300;8.880;2023-02-11T10:35:30;31.50;;;22.97;;
65035;SDS011;51603;49.300;8.880;2023-02-11T10:37:56;26.43;;;21.63;;
65035;SDS011;51603;49.300;8.880;2023-02-11T10:40:24;31.77;;;23.37;;
65035;SDS011;51603;49.300;8.880;2023-02-11T10:42:54;25.70;;;22.33;;
65035;SDS011;51603;49.300;8.880;2023-02-11T10:48:00;31.90;;;22.90;;
65035;SDS011;51603;49.300;8.880;2023-02-11T10:50:31;30.47;;;23.13;;
65035;SDS011;51603;49.300;8.880;2023-02-11T10:55:52;28.87;;;23.30;;
65035;SDS011;51603;49.300;8.880;2023-02-11T10:58:27;27.20;;;22.70;;
65035;SDS011;51603;49.300;8.880;2023-02-11T11:00:55;28.70;;;22.03;;
65035;SDS011;51603;49.300;8.880;2023-02-11T11:03:23;34.67;;;24.63;;
65035;SDS011;51603;49.300;8.880;2023-02-11T11:05:55;32.13;;;24.03;;
65035;SDS011;51603;49.300;8.880;2023-02-11T11:08:36;29.57;;;22.40;;
65035;SDS011;51603;49.300;8.880;2023-02-11T11:11:14;30.40;;;23.17;;
65035;SDS011;51603;49.300;8.880;2023-02-11T11:13:52;28.40;;;23.37;;
65035;SDS011;51603;49.300;8.880;2023-02-11T11:16:31;28.00;;;22.30;;
65035;SDS011;51603;49.300;8.880;2023-02-11T11:21:50;28.70;;;24.30;;
65035;SDS011;51603;49.300;8.880;2023-02-11T11:27:03;31.47;;;22.33;;
65035;SDS011;51603;49.300;8.880;2023-02-11T11:32:01;28.37;;;24.23;;
65035;SDS011;51603;49.300;8.880;2023-02-11T11:34:36;28.90;;;22.67;;
65035;SDS011;51603;49.300;8.880;2023-02-11T11:37:12;29.47;;;21.07;;
65035;SDS011;51603;49.300;8.880;2023-02-11T11:42:33;27.20;;;20.97;;
65035;SDS011;51603;49.300;8.880;2023-02-11T11:45:17;26.20;;;21.30;;
65035;SDS011;51603;49.300;8.880;2023-02-11T11:47:57;28.30;;;22.27;;
65035;SDS011;51603;49.300;8.880;2023-02-11T11:50:43;27.23;;;21.40;;
65035;SDS011;51603;49.300;8.880;2023-02-11T11:55:58;26.13;;;21.33;;
65035;SDS011;51603;49.300;8.880;2023-02-11T11:58:24;27.47;;;21.60;;
65035;SDS011;51603;49.300;8.880;2023-02-11T12:00:58;28.07;;;23.13;;
65035;SDS011;51603;49.300;8.880;2023-02-11T12:09:00;27.00;;;22.03;;
65035;SDS011;51603;49.300;8.880;2023-02-11T12:25:35;25.80;;;20.17;;
65035;SDS011;51603;49.300;8.880;2023-02-11T12:39:42;24.90;;;20.03;;
65035;SDS011;51603;49.300;8.880;2023-02-11T12:51:08;22.10;;;19.70;;
65035;SDS011;51603;49.300;8.880;2023-02-11T12:56:47;25.70;;;20.20;;
65035;SDS011;51603;49.300;8.880;2023-02-11T12:59:50;24.67;;;21.40;;
65035;SDS011;51603;49.300;8.880;2023-02-11T13:04:55;23.00;;;20.43;;
65035;SDS011;51603;49.300;8.880;2023-02-11T13:07:28;24.37;;;19.63;;
65035;SDS011;51603;49.300;8.880;2023-02-11T13:12:48;27.00;;;19.70;;
65035;SDS011;51603;49.300;8.880;2023-02-11T13:15:35;25.13;;;18.03;;
65035;SDS011;51603;49.300;8.880;2023-02-11T13:18:20;22.10;;;19.70;;
65035;SDS011;51603;49.300;8.880;2023-02-11T13:26:17;22.27;;;19.53;;
65035;SDS011;51603;49.300;8.880;2023-02-11T13:31:37;22.70;;;18.00;;
65035;SDS011;51603;49.300;8.880;2023-02-11T13:34:02;22.70;;;19.30;;
65035;SDS011;51603;49.300;8.880;2023-02-11T13:37:41;24.13;;;21.13;;
65035;SDS011;51603;49.300;8.880;2023-02-11T13:40:19;33.93;;;25.77;;
65035;SDS011;51603;49.300;8.880;2023-02-11T13:42:56;24.70;;;21.00;;
65035;SDS011;51603;49.300;8.880;2023-02-11T13:45:28;41.00;;;30.90;;
65035;SDS011;51603;49.300;8.880;2023-02-11T13:47:57;40.30;;;29.37;;
65035;SDS011;51603;49.300;8.880;2023-02-11T13:50:26;29.53;;;21.40;;
65035;SDS011;51603;49.300;8.880;2023-02-11T13:53:00;58.17;;;37.50;;
65035;SDS011;51603;49.300;8.880;2023-02-11T13:55:27;103.30;;;56.43;;
65035;SDS011;51603;49.300;8.880;2023-02-11T14:14:15;23.23;;;18.30;;
65035;SDS011;51603;49.300;8.880;2023-02-11T14:24:48;24.23;;;19.53;;
65035;SDS011;51603;49.300;8.880;2023-02-11T14:27:24;19.77;;;16.60;;
65035;SDS011;51603;49.300;8.880;2023-02-11T14:30:01;21.60;;;18.50;;
65035;SDS011;51603;49.300;8.880;2023-02-11T14:32:50;21.60;;;18.90;;
65035;SDS011;51603;49.300;8.880;2023-02-11T14:35:34;21.93;;;18.83;;
65035;SDS011;51603;49.300;8.880;2023-02-11T14:38:25;19.37;;;17.00;;
65035;SDS011;51603;49.300;8.880;2023-02-11T14:43:30;19.97;;;16.80;;
65035;SDS011;51603;49.300;8.880;2023-02-11T14:46:02;19.00;;;16.80;;
65035;SDS011;51603;49.300;8.880;2023-02-11T14:48:29;23.20;;;18.90;;
65035;SDS011;51603;49.300;8.880;2023-02-11T14:53:24;20.20;;;17.33;;
65035;SDS011;51603;49.300;8.880;2023-02-11T14:55:54;21.00;;;18.20;;
65035;SDS011;51603;49.300;8.880;2023-02-11T14:58:21;22.57;;;17.90;;
65035;SDS011;51603;49.300;8.880;2023-02-11T15:06:00;20.93;;;18.47;;
65035;SDS011;51603;49.300;8.880;2023-02-11T15:08:29;22.97;;;20.50;;
65035;SDS011;51603;49.300;8.880;2023-02-11T15:10:56;22.50;;;18.77;;
65035;SDS011;51603;49.300;8.880;2023-02-11T15:13:24;21.20;;;18.47;;
65035;SDS011;51603;49.300;8.880;2023-02-11T15:15:56;23.67;;;19.20;;
65035;SDS011;51603;49.300;8.880;2023-02-11T15:18:28;22.93;;;19.37;;
65035;SDS011;51603;49.300;8.880;2023-02-11T15:20:58;29.20;;;19.03;;
65035;SDS011;51603;49.300;8.880;2023-02-11T15:23:25;24.40;;;21.80;;
65035;SDS011;51603;49.300;8.880;2023-02-11T15:25:53;26.50;;;19.13;;
65035;SDS011;51603;49.300;8.880;2023-02-11T15:28:28;22.70;;;18.57;;
65035;SDS011;51603;49.300;8.880;2023-02-11T15:31:02;25.10;;;18.50;;
65035;SDS011;51603;49.300;8.880;2023-02-11T15:33:30;27.30;;;19.20;;
65035;SDS011;51603;49.300;8.880;2023-02-11T15:35:57;21.60;;;18.40;;
65035;SDS011;51603;49.300;8.880;2023-02-11T15:38:24;23.20;;;20.03;;
65035;SDS011;51603;49.300;8.880;2023-02-11T15:40:54;23.30;;;19.23;;
65035;SDS011;51603;49.300;8.880;2023-02-11T15:43:22;25.10;;;21.70;;
65035;SDS011;51603;49.300;8.880;2023-02-11T15:50:54;23.50;;;19.87;;
65035;SDS011;51603;49.300;8.880;2023-02-11T15:53:28;25.97;;;20.13;;
65035;SDS011;51603;49.300;8.880;2023-02-11T15:58:37;30.80;;;21.80;;
65035;SDS011;51603;49.300;8.880;2023-02-11T16:01:04;26.70;;;21.13;;
65035;SDS011;51603;49.300;8.880;2023-02-11T16:03:30;24.33;;;21.10;;
65035;SDS011;51603;49.300;8.880;2023-02-11T16:06:15;28.63;;;22.10;;
65035;SDS011;51603;49.300;8.880;2023-02-11T16:08:57;26.47;;;21.87;;
65035;SDS011;51603;49.300;8.880;2023-02-11T16:11:26;28.63;;;23.00;;
65035;SDS011;51603;49.300;8.880;2023-02-11T16:13:56;27.93;;;21.80;;
65035;SDS011;51603;49.300;8.880;2023-02-11T16:16:29;27.77;;;21.60;;
65035;SDS011;51603;49.300;8.880;2023-02-11T16:18:58;28.63;;;22.00;;
65035;SDS011;51603;49.300;8.880;2023-02-11T16:21:30;27.23;;;22.47;;
65035;SDS011;51603;49.300;8.880;2023-02-11T16:24:03;27.63;;;23.27;;
65035;SDS011;51603;49.300;8.880;2023-02-11T16:26:31;25.10;;;21.70;;
65035;SDS011;51603;49.300;8.880;2023-02-11T16:29:03;28.60;;;22.07;;
65035;SDS011;51603;49.300;8.880;2023-02-11T16:31:36;27.53;;;22.90;;
65035;SDS011;51603;49.300;8.880;2023-02-11T16:34:10;33.50;;;24.67;;
65035;SDS011;51603;49.300;8.880;2023-02-11T16:36:38;28.63;;;21.83;;
65035;SDS011;51603;49.300;8.880;2023-02-11T16:39:03;29.23;;;22.53;;
65035;SDS011;51603;49.300;8.880;2023-02-11T16:41:29;26.70;;;21.63;;
65035;SDS011;51603;49.300;8.880;2023-02-11T16:43:57;22.97;;;19.50;;
65035;SDS011;51603;49.300;8.880;2023-02-11T16:46:23;27.70;;;21.40;;
65035;SDS011;51603;49.300;8.880;2023-02-11T16:48:50;31.60;;;22.63;;
65035;SDS011;51603;49.300;8.880;2023-02-11T16:51:16;28.33;;;22.27;;
65035;SDS011;51603;49.300;8.880;2023-02-11T16:53:41;29.50;;;22.67;;
65035;SDS011;51603;49.300;8.880;2023-02-11T16:56:10;30.47;;;23.57;;
65035;SDS011;51603;49.300;8.880;2023-02-11T16:58:38;27.70;;;22.10;;
65035;SDS011;51603;49.300;8.880;2023-02-11T17:01:04;26.93;;;21.23;;
65035;SDS011;51603;49.300;8.880;2023-02-11T17:03:30;26.37;;;22.70;;
65035;SDS011;51603;49.300;8.880;2023-02-11T17:06:01;31.10;;;23.80;;
65035;SDS011;51603;49.300;8.880;2023-02-11T17:08:29;28.37;;;21.30;;
65035;SDS011;51603;49.300;8.880;2023-02-11T17:10:55;27.00;;;20.50;;
65035;SDS011;51603;49.300;8.880;2023-02-11T17:13:21;24.67;;;19.83;;
65035;SDS011;51603;49.300;8.880;2023-02-11T17:15:46;22.90;;;19.20;;
65035;SDS011;51603;49.300;8.880;2023-02-11T17:18:12;25.83;;;20.87;;
65035;SDS011;51603;49.300;8.880;2023-02-11T17:20:38;30.20;;;24.30;;
65035;SDS011;51603;49.300;8.880;2023-02-11T17:23:04;36.67;;;27.43;;
65035;SDS011;51603;49.300;8.880;2023-02-11T17:25:29;31.03;;;23.87;;
65035;SDS011;51603;49.300;8.880;2023-02-11T17:27:55;28.10;;;22.67;;
65035;SDS011;51603;49.300;8.880;2023-02-11T17:30:21;35.20;;;24.43;;
65035;SDS011;51603;49.300;8.880;2023-02-11T17:32:47;27.40;;;22.53;;
65035;SDS011;51603;49.300;8.880;2023-02-11T17:35:13;28.90;;;21.53;;
65035;SDS011;51603;49.300;8.880;2023-02-11T17:37:39;36.00;;;24.03;;
65035;SDS011;51603;49.300;8.880;2023-02-11T17:40:05;39.57;;;23.33;;